createdAt,value
2023-04-17T00:04:03.231Z,220.80
2023-04-17T00:14:08.150Z,213.93
2023-04-17T00:24:13.132Z,215.70
2023-04-17T00:34:17.867Z,211.67
2023-04-17T00:44:21.359Z,218.33
2023-04-17T00:54:26.637Z,211.30
2023-04-17T01:04:30.195Z,209.30
2023-04-17T01:14:35.066Z,214.77
2023-04-17T01:24:40.092Z,215.10
2023-04-17T01:44:49.345Z,223.00
2023-04-17T01:54:52.787Z,210.73
2023-04-17T02:04:57.472Z,210.73
2023-04-17T02:15:01.384Z,213.67
2023-04-17T02:25:07.038Z,208.27
2023-04-17T02:35:11.417Z,205.50
2023-04-17T02:45:16.474Z,214.00
2023-04-17T02:55:21.160Z,220.33
2023-04-17T03:05:30.350Z,212.97
2023-04-17T03:15:36.491Z,213.50
2023-04-17T03:25:42.780Z,220.47
2023-04-17T03:35:47.375Z,216.87
2023-04-17T03:45:53.717Z,219.70
2023-04-17T03:55:58.209Z,222.87
2023-04-17T04:06:09.273Z,217.93
2023-04-17T04:16:12.933Z,223.07
2023-04-17T04:26:21.737Z,226.43
2023-04-17T04:36:30.457Z,221.87
2023-04-17T04:46:55.589Z,223.40
2023-04-17T04:56:59.412Z,224.50
2023-04-17T05:07:05.171Z,226.10
2023-04-17T05:17:11.052Z,230.93
2023-04-17T05:27:16.966Z,233.70
2023-04-17T05:37:22.007Z,231.40
2023-04-17T05:47:26.923Z,242.03
2023-04-17T05:57:30.435Z,237.57
2023-04-17T06:07:38.387Z,236.00
2023-04-17T06:17:43.813Z,249.17
2023-04-17T06:27:48.721Z,238.43
2023-04-17T06:37:52.252Z,241.43
2023-04-17T06:47:57.284Z,237.83
2023-04-17T06:58:00.903Z,240.47
2023-04-17T07:08:06.359Z,232.70
2023-04-17T07:18:09.801Z,230.53
2023-04-17T07:28:14.691Z,245.73
2023-04-17T07:38:18.217Z,238.70
2023-04-17T07:48:24.154Z,232.57
2023-04-17T07:58:27.902Z,233.03
2023-04-17T08:08:32.664Z,231.93
2023-04-17T08:18:37.792Z,231.33
2023-04-17T08:28:42.629Z,228.10
2023-04-17T08:38:47.928Z,228.87
2023-04-17T08:48:52.962Z,228.50
2023-04-17T08:58:56.446Z,230.20
2023-04-17T09:09:04.152Z,225.67
2023-04-17T09:19:08.817Z,234.97
2023-04-17T09:29:14.799Z,230.10
2023-04-17T09:39:21.125Z,233.57
2023-04-17T09:49:34.987Z,232.17
2023-04-17T09:59:41.488Z,221.37
2023-04-17T10:09:47.004Z,227.73
2023-04-17T10:19:50.404Z,218.40
2023-04-17T10:29:57.479Z,227.40
2023-04-17T10:40:02.910Z,221.73
2023-04-17T10:50:10.632Z,219.20
2023-04-17T11:00:16.591Z,215.73
2023-04-17T11:10:22.892Z,213.30
2023-04-17T11:20:29.893Z,215.97
2023-04-17T11:30:36.519Z,211.07
2023-04-17T11:40:48.160Z,213.57
2023-04-17T11:50:57.620Z,214.83
2023-04-17T12:01:06.573Z,211.30
2023-04-17T12:11:20.331Z,215.83
2023-04-17T12:21:24.847Z,207.27
2023-04-17T12:31:29.744Z,214.03
2023-04-17T12:41:33.245Z,215.73
2023-04-17T12:51:38.203Z,208.23
2023-04-17T13:01:42.615Z,210.87
2023-04-17T13:11:47.421Z,219.30
2023-04-17T13:21:52.558Z,215.90
2023-04-17T13:31:57.378Z,219.40
2023-04-17T13:42:00.850Z,211.97
2023-04-17T13:52:06.724Z,217.73
2023-04-17T14:02:10.630Z,206.73
2023-04-17T14:12:19.865Z,210.57
2023-04-17T14:22:23.285Z,205.47
2023-04-17T14:32:28.152Z,206.87
2023-04-17T14:42:35.999Z,207.97
2023-04-17T14:52:52.280Z,203.80
2023-04-17T15:02:56.133Z,210.87
2023-04-17T15:13:01.276Z,202.53
2023-04-17T15:23:04.622Z,214.53
2023-04-17T15:33:10.354Z,203.60
2023-04-17T15:43:14.088Z,201.70
2023-04-17T15:53:18.860Z,204.03
2023-04-17T16:03:23.391Z,203.13
2023-04-17T16:13:29.197Z,205.13
2023-04-17T16:23:32.691Z,203.97
2023-04-17T16:33:37.745Z,203.57
2023-04-17T16:43:42.488Z,204.70
2023-04-17T16:53:47.343Z,199.07
2023-04-17T17:03:50.930Z,204.17
2023-04-17T17:13:56.473Z,202.70
2023-04-17T17:24:00.650Z,199.27
2023-04-17T17:34:22.630Z,200.70
2023-04-17T17:44:29.076Z,198.33
2023-04-17T17:54:37.621Z,200.73
2023-04-17T18:04:41.178Z,201.20
2023-04-17T18:14:46.295Z,204.00
2023-04-17T18:24:49.655Z,203.37
2023-04-17T18:34:54.527Z,202.93
2023-04-17T18:44:58.463Z,200.83
2023-04-17T18:55:04.166Z,209.17
2023-04-17T19:05:09.070Z,206.33
2023-04-17T19:15:14.082Z,201.27
2023-04-17T19:25:17.571Z,201.90
2023-04-17T19:35:22.662Z,204.90
2023-04-17T19:45:26.017Z,203.43
2023-04-17T19:55:31.246Z,201.77
2023-04-17T20:05:34.850Z,204.17
2023-04-17T20:15:40.303Z,204.57
2023-04-17T20:25:43.949Z,201.87
2023-04-17T20:35:48.878Z,203.07
2023-04-17T20:45:52.768Z,205.60
2023-04-17T20:55:58.021Z,205.97
2023-04-17T21:06:02.042Z,205.70
2023-04-17T21:16:11.350Z,205.87
2023-04-17T21:26:16.250Z,206.43
2023-04-17T21:36:22.494Z,199.57
2023-04-17T21:46:26.596Z,210.37
2023-04-17T21:56:33.571Z,203.33
2023-04-17T22:06:39.338Z,205.13
2023-04-17T22:16:44.521Z,204.40
2023-04-17T22:26:47.961Z,206.03
2023-04-17T22:36:52.768Z,197.70
2023-04-17T22:46:56.131Z,205.27
2023-04-17T22:57:02.366Z,203.07
2023-04-17T23:07:05.809Z,202.07
2023-04-17T23:17:10.654Z,203.40
2023-04-17T23:27:14.006Z,209.17
2023-04-17T23:37:18.752Z,211.30
2023-04-17T23:47:22.211Z,214.70
2023-04-17T23:57:26.961Z,217.07
